createdAt,value
2023-05-19T00:01:19.759Z,11.02
2023-05-19T00:03:52.755Z,10.82
2023-05-19T00:06:46.826Z,10.73
2023-05-19T00:09:14.035Z,10.82
2023-05-19T00:11:41.376Z,10.27
2023-05-19T00:14:09.846Z,10.57
2023-05-19T00:16:38.078Z,10.80
2023-05-19T00:19:06.501Z,10.45
2023-05-19T00:21:33.733Z,10.80
2023-05-19T00:24:00.844Z,10.77
2023-05-19T00:26:28.037Z,11.30
2023-05-19T00:29:00.189Z,11.30
2023-05-19T00:31:27.553Z,11.30
2023-05-19T00:33:55.672Z,11.52
2023-05-19T00:36:22.739Z,11.60
2023-05-19T00:38:51.198Z,11.50
2023-05-19T00:41:18.636Z,11.18
2023-05-19T00:43:45.880Z,12.30
2023-05-19T00:46:13.155Z,13.75
2023-05-19T00:48:40.243Z,13.38
2023-05-19T00:51:07.373Z,13.07
2023-05-19T00:53:34.551Z,13.05
2023-05-19T00:56:02.364Z,13.40
2023-05-19T00:58:30.538Z,12.10
2023-05-19T01:01:03.446Z,12.55
2023-05-19T01:03:31.978Z,11.85
2023-05-19T01:06:01.832Z,13.13
2023-05-19T01:08:29.464Z,11.73
2023-05-19T01:10:56.705Z,12.85
2023-05-19T01:13:23.881Z,13.48
2023-05-19T01:16:00.224Z,13.32
2023-05-19T01:18:36.873Z,13.07
2023-05-19T01:21:16.203Z,13.10
2023-05-19T01:23:49.949Z,13.40
2023-05-19T01:26:26.418Z,13.93
2023-05-19T01:28:56.160Z,13.68
2023-05-19T01:31:24.001Z,13.60
2023-05-19T01:33:53.043Z,14.20
2023-05-19T01:36:21.217Z,12.88
2023-05-19T01:38:52.479Z,12.70
2023-05-19T01:41:21.959Z,13.25
2023-05-19T01:43:49.202Z,13.02
2023-05-19T01:46:16.385Z,13.95
2023-05-19T01:48:43.862Z,13.63
2023-05-19T01:51:11.146Z,14.27
2023-05-19T01:53:38.327Z,13.65
2023-05-19T01:56:05.881Z,13.70
2023-05-19T01:58:45.709Z,13.95
2023-05-19T02:01:21.862Z,14.13
2023-05-19T02:04:04.180Z,13.95
2023-05-19T02:06:31.804Z,14.50
2023-05-19T02:09:12.208Z,14.45
2023-05-19T02:11:46.109Z,14.65
2023-05-19T02:14:20.069Z,13.18
2023-05-19T02:16:48.410Z,13.48
2023-05-19T02:19:26.249Z,14.13
2023-05-19T02:21:56.386Z,14.05
2023-05-19T02:24:23.582Z,13.88
2023-05-19T02:26:52.074Z,14.32
2023-05-19T02:29:22.480Z,14.95
2023-05-19T02:31:51.038Z,14.77
2023-05-19T02:34:19.540Z,15.32
2023-05-19T02:36:49.792Z,15.02
2023-05-19T02:39:16.919Z,14.93
2023-05-19T02:41:43.921Z,15.13
2023-05-19T02:44:11.108Z,15.07
2023-05-19T02:46:41.287Z,16.23
2023-05-19T02:49:08.418Z,14.52
2023-05-19T02:51:35.432Z,14.38
2023-05-19T02:54:02.399Z,15.63
2023-05-19T02:56:29.580Z,13.82
2023-05-19T02:58:56.827Z,14.70
2023-05-19T03:01:23.997Z,15.00
2023-05-19T03:03:51.144Z,14.55
2023-05-19T03:06:18.388Z,14.30
2023-05-19T03:08:45.479Z,13.60
2023-05-19T03:11:12.615Z,15.32
2023-05-19T03:13:39.812Z,14.10
2023-05-19T03:16:08.439Z,13.93
2023-05-19T03:18:36.268Z,13.95
2023-05-19T03:21:03.842Z,13.70
2023-05-19T03:23:31.048Z,13.70
2023-05-19T03:25:58.270Z,13.85
2023-05-19T03:28:27.451Z,13.15
2023-05-19T03:30:54.643Z,12.63
2023-05-19T03:33:25.757Z,13.40
2023-05-19T03:35:53.124Z,12.10
2023-05-19T03:38:20.738Z,12.65
2023-05-19T03:40:53.886Z,11.57
2023-05-19T03:43:20.977Z,11.88
2023-05-19T03:45:53.952Z,11.93
2023-05-19T03:48:39.816Z,10.00
2023-05-19T03:51:28.758Z,10.20
2023-05-19T03:54:00.726Z,9.40
2023-05-19T03:56:28.741Z,8.63
2023-05-19T03:58:55.992Z,8.80
2023-05-19T04:01:23.254Z,8.20
2023-05-19T04:03:50.369Z,8.27
2023-05-19T04:06:19.230Z,7.25
2023-05-19T04:08:46.284Z,8.48
2023-05-19T04:11:13.461Z,7.78
2023-05-19T04:13:40.629Z,7.60
2023-05-19T04:16:07.882Z,7.85
2023-05-19T04:18:35.178Z,6.10
2023-05-19T04:21:02.228Z,5.60
2023-05-19T04:23:29.215Z,5.30
2023-05-19T04:25:58.268Z,5.30
2023-05-19T04:28:25.498Z,5.68
2023-05-19T04:30:52.616Z,5.07
2023-05-19T04:33:20.296Z,4.75
2023-05-19T04:35:47.810Z,4.57
2023-05-19T04:38:18.970Z,4.60
2023-05-19T04:40:50.418Z,4.45
2023-05-19T04:43:19.418Z,4.82
2023-05-19T04:45:47.397Z,4.80
2023-05-19T04:48:15.404Z,4.82
2023-05-19T04:50:42.597Z,4.50
2023-05-19T04:53:11.639Z,4.40
2023-05-19T04:55:39.378Z,4.47
2023-05-19T04:58:07.266Z,4.80
2023-05-19T05:00:35.908Z,4.38
2023-05-19T05:03:07.300Z,3.50
2023-05-19T05:05:35.097Z,4.13
2023-05-19T05:08:03.278Z,4.47
2023-05-19T05:10:35.921Z,4.82
2023-05-19T05:13:03.279Z,5.30
2023-05-19T05:15:30.847Z,5.07
2023-05-19T05:18:01.347Z,4.70
2023-05-19T05:20:29.051Z,5.07
2023-05-19T05:22:58.057Z,4.50
2023-05-19T05:25:26.560Z,4.75
2023-05-19T05:27:53.809Z,4.80
2023-05-19T05:30:21.002Z,4.82
2023-05-19T05:32:48.220Z,4.80
2023-05-19T05:35:29.695Z,5.60
2023-05-19T05:37:56.880Z,5.35
2023-05-19T05:40:24.127Z,5.75
2023-05-19T05:42:52.181Z,5.30
2023-05-19T05:45:25.919Z,5.55
2023-05-19T05:47:54.435Z,5.95
2023-05-19T05:50:21.883Z,5.22
2023-05-19T05:52:49.718Z,6.13
2023-05-19T05:55:18.600Z,5.78
2023-05-19T05:57:48.789Z,5.20
2023-05-19T06:00:16.515Z,5.28
2023-05-19T06:02:50.623Z,4.68
2023-05-19T06:05:19.543Z,4.88
2023-05-19T06:07:48.119Z,4.30
2023-05-19T06:10:20.641Z,3.83
2023-05-19T06:12:48.871Z,4.30
2023-05-19T06:15:16.410Z,4.20
2023-05-19T06:17:50.574Z,4.47
2023-05-19T06:20:18.692Z,4.63
2023-05-19T06:22:45.975Z,3.92
2023-05-19T06:25:14.844Z,4.20
2023-05-19T06:27:42.683Z,4.30
2023-05-19T06:30:09.999Z,4.10
2023-05-19T06:32:47.906Z,4.50
2023-05-19T06:35:15.199Z,4.80
2023-05-19T06:37:45.646Z,4.35
2023-05-19T06:40:13.364Z,4.38
2023-05-19T06:42:42.267Z,4.90
2023-05-19T06:45:28.970Z,4.22
2023-05-19T06:47:58.505Z,4.57
2023-05-19T06:50:25.841Z,4.63
2023-05-19T06:52:53.037Z,4.47
2023-05-19T06:55:20.337Z,4.85
2023-05-19T06:57:49.345Z,4.53
2023-05-19T07:00:20.475Z,4.45
2023-05-19T07:02:49.636Z,4.57
2023-05-19T07:05:16.816Z,4.93
2023-05-19T07:07:48.572Z,4.65
2023-05-19T07:10:21.616Z,4.53
2023-05-19T07:12:48.993Z,4.80
2023-05-19T07:15:18.027Z,5.25
2023-05-19T07:17:45.217Z,5.00
2023-05-19T07:20:12.713Z,5.43
2023-05-19T07:22:42.452Z,4.82
2023-05-19T07:25:09.901Z,4.95
2023-05-19T07:27:37.205Z,4.88
2023-05-19T07:30:04.525Z,4.68
2023-05-19T07:32:34.840Z,5.28
2023-05-19T07:35:01.923Z,4.95
2023-05-19T07:37:32.261Z,4.88
2023-05-19T07:39:59.277Z,5.20
2023-05-19T07:42:26.373Z,5.07
2023-05-19T07:44:53.359Z,4.93
2023-05-19T07:47:20.515Z,5.05
2023-05-19T07:49:49.661Z,4.60
2023-05-19T07:52:18.405Z,4.78
2023-05-19T07:54:45.925Z,5.05
2023-05-19T07:57:14.534Z,5.40
2023-05-19T07:59:41.714Z,4.85
2023-05-19T08:02:08.823Z,4.93
2023-05-19T08:04:36.055Z,4.93
2023-05-19T08:07:03.541Z,5.32
2023-05-19T08:09:30.744Z,5.70
2023-05-19T08:11:58.206Z,6.00
2023-05-19T08:14:26.254Z,5.45
2023-05-19T08:16:53.424Z,4.72
2023-05-19T08:19:20.863Z,5.10
2023-05-19T08:21:48.486Z,5.10
2023-05-19T08:24:15.766Z,4.97
2023-05-19T08:26:44.127Z,4.90
2023-05-19T08:29:11.284Z,5.40
2023-05-19T08:31:38.386Z,5.30
2023-05-19T08:34:05.500Z,4.88
2023-05-19T08:36:33.969Z,4.90
2023-05-19T08:39:01.138Z,5.15
2023-05-19T08:41:28.181Z,5.47
2023-05-19T08:43:55.417Z,5.50
2023-05-19T08:46:23.046Z,5.22
2023-05-19T08:48:50.195Z,5.45
2023-05-19T08:51:48.471Z,5.10
2023-05-19T08:54:16.086Z,5.13
2023-05-19T08:56:44.637Z,5.40
2023-05-19T08:59:15.312Z,5.88
2023-05-19T09:01:46.413Z,5.47
2023-05-19T09:04:13.659Z,5.40
2023-05-19T09:06:45.344Z,5.57
2023-05-19T09:09:12.676Z,6.45
2023-05-19T09:11:39.782Z,5.50
2023-05-19T09:14:07.068Z,6.20
2023-05-19T09:16:34.540Z,5.57
2023-05-19T09:19:01.743Z,6.18
2023-05-19T09:21:32.729Z,6.18
2023-05-19T09:24:06.594Z,5.63
2023-05-19T09:26:40.760Z,5.28
2023-05-19T09:29:12.056Z,5.43
2023-05-19T09:31:39.343Z,5.32
2023-05-19T09:34:12.600Z,5.55
2023-05-19T09:36:41.516Z,5.60
2023-05-19T09:39:21.709Z,5.55
2023-05-19T09:41:55.392Z,5.22
2023-05-19T09:44:29.440Z,5.40
2023-05-19T09:46:57.057Z,5.70
2023-05-19T09:49:31.484Z,5.18
2023-05-19T09:51:59.925Z,5.30
2023-05-19T09:54:31.266Z,5.32
2023-05-19T09:56:59.214Z,5.38
2023-05-19T09:59:27.262Z,5.57
2023-05-19T10:01:56.924Z,5.70
2023-05-19T10:04:25.577Z,5.35
2023-05-19T10:06:59.665Z,5.57
2023-05-19T10:09:29.373Z,6.35
2023-05-19T10:11:57.383Z,5.28
2023-05-19T10:14:30.932Z,5.18
2023-05-19T10:16:58.996Z,5.40
2023-05-19T10:19:27.945Z,5.60
2023-05-19T10:21:55.185Z,5.25
2023-05-19T10:24:22.400Z,5.28
2023-05-19T10:27:04.172Z,4.90
2023-05-19T10:29:36.908Z,5.47
2023-05-19T10:32:19.951Z,5.30
2023-05-19T10:35:21.355Z,5.30
2023-05-19T10:38:15.373Z,5.53
2023-05-19T10:41:21.669Z,5.13
2023-05-19T10:43:56.483Z,5.65
2023-05-19T10:46:25.587Z,5.43
2023-05-19T10:48:52.720Z,5.28
2023-05-19T10:51:19.899Z,5.70
2023-05-19T10:53:47.233Z,5.93
2023-05-19T10:56:36.236Z,5.38
2023-05-19T10:59:03.674Z,6.00
2023-05-19T11:01:38.396Z,5.93
2023-05-19T11:04:12.565Z,6.30
2023-05-19T11:06:41.439Z,6.38
2023-05-19T11:09:38.016Z,6.28
2023-05-19T11:12:07.332Z,6.05
2023-05-19T11:14:34.930Z,6.40
2023-05-19T11:17:01.994Z,5.80
2023-05-19T11:19:29.655Z,5.57
2023-05-19T11:21:58.659Z,6.60
2023-05-19T11:24:45.095Z,6.18
2023-05-19T11:27:21.289Z,6.53
2023-05-19T11:29:48.642Z,6.53
2023-05-19T11:32:16.285Z,6.43
2023-05-19T11:34:44.565Z,6.88
2023-05-19T11:37:11.767Z,6.38
2023-05-19T11:39:39.709Z,6.57
2023-05-19T11:42:08.668Z,6.20
2023-05-19T11:44:35.814Z,6.13
2023-05-19T11:47:02.931Z,6.40
2023-05-19T11:49:29.974Z,6.68
2023-05-19T11:51:56.970Z,6.72
2023-05-19T11:54:36.740Z,6.40
2023-05-19T11:57:04.042Z,6.45
2023-05-19T11:59:34.847Z,6.43
2023-05-19T12:02:04.250Z,6.68
2023-05-19T12:04:32.056Z,6.97
2023-05-19T12:06:59.529Z,6.30
2023-05-19T12:09:28.156Z,6.90
2023-05-19T12:11:55.375Z,7.05
2023-05-19T12:14:22.534Z,7.00
2023-05-19T12:16:49.911Z,6.38
2023-05-19T12:19:17.115Z,6.43
2023-05-19T12:21:44.249Z,6.57
2023-05-19T12:24:11.424Z,6.97
2023-05-19T12:26:38.459Z,6.70
2023-05-19T12:29:06.961Z,6.63
2023-05-19T12:31:38.041Z,7.25
2023-05-19T12:34:05.336Z,6.40
2023-05-19T12:36:32.566Z,6.70
2023-05-19T12:39:00.207Z,7.15
2023-05-19T12:41:30.163Z,6.80
2023-05-19T12:43:57.359Z,6.82
2023-05-19T12:46:24.683Z,6.43
2023-05-19T12:48:52.011Z,7.07
2023-05-19T12:51:19.629Z,6.70
2023-05-19T12:53:47.522Z,6.85
2023-05-19T12:56:15.282Z,6.70
2023-05-19T12:58:43.068Z,6.55
2023-05-19T13:01:17.632Z,6.10
2023-05-19T13:03:45.948Z,6.10
2023-05-19T13:06:13.286Z,6.60
2023-05-19T13:08:41.325Z,6.30
2023-05-19T13:11:09.103Z,6.05
2023-05-19T13:13:37.847Z,5.78
2023-05-19T13:16:06.400Z,6.05
2023-05-19T13:18:36.769Z,5.88
2023-05-19T13:21:05.028Z,5.22
2023-05-19T13:23:35.020Z,5.60
2023-05-19T13:26:05.559Z,5.65
2023-05-19T13:28:33.053Z,5.55
2023-05-19T13:31:00.678Z,5.10
2023-05-19T13:33:27.939Z,5.40
2023-05-19T13:35:55.179Z,4.70
2023-05-19T13:38:22.417Z,4.95
2023-05-19T13:40:49.521Z,4.47
2023-05-19T13:43:16.890Z,4.50
2023-05-19T13:45:44.755Z,4.32
2023-05-19T13:48:12.340Z,4.38
2023-05-19T13:50:39.900Z,4.13
2023-05-19T13:53:07.225Z,4.03
2023-05-19T13:55:34.709Z,4.43
2023-05-19T13:58:01.946Z,3.92
2023-05-19T14:00:31.053Z,3.95
2023-05-19T14:02:59.175Z,4.00
2023-05-19T14:05:28.540Z,3.88
2023-05-19T14:07:56.014Z,3.72
2023-05-19T14:10:23.121Z,3.90
2023-05-19T14:13:18.335Z,3.75
2023-05-19T14:15:38.354Z,3.75
2023-05-19T14:18:07.167Z,3.25
2023-05-19T14:20:35.158Z,3.60
2023-05-19T14:23:03.312Z,3.58
2023-05-19T14:25:30.698Z,3.35
2023-05-19T14:27:57.839Z,3.88
2023-05-19T14:30:25.103Z,3.30
2023-05-19T14:32:52.296Z,3.13
2023-05-19T14:35:20.105Z,3.28
2023-05-19T14:37:47.218Z,2.97
2023-05-19T14:40:14.378Z,3.20
2023-05-19T14:42:41.701Z,3.13
2023-05-19T14:45:09.678Z,3.63
2023-05-19T14:47:36.800Z,3.30
2023-05-19T14:50:04.167Z,3.03
2023-05-19T14:52:31.364Z,3.30
2023-05-19T14:54:58.538Z,3.22
2023-05-19T14:57:25.875Z,2.90
2023-05-19T14:59:53.021Z,3.00
2023-05-19T15:02:20.550Z,45.92
2023-05-19T15:04:48.066Z,4.30
2023-05-19T15:07:15.351Z,5.40
2023-05-19T15:09:42.456Z,18.58
2023-05-19T15:12:09.681Z,6.53
2023-05-19T15:14:36.977Z,3.13
2023-05-19T15:17:04.387Z,2.95
2023-05-19T15:19:31.722Z,3.00
2023-05-19T15:21:59.050Z,2.83
2023-05-19T15:24:26.512Z,3.00
2023-05-19T15:26:54.547Z,2.70
2023-05-19T15:29:21.811Z,2.70
2023-05-19T15:31:52.243Z,2.55
2023-05-19T15:34:22.560Z,2.40
2023-05-19T15:36:49.776Z,2.60
2023-05-19T15:39:16.947Z,2.70
2023-05-19T15:41:44.087Z,2.40
2023-05-19T15:44:11.317Z,2.55
2023-05-19T15:46:38.600Z,2.30
2023-05-19T15:49:05.884Z,2.22
2023-05-19T15:51:33.101Z,2.30
2023-05-19T15:54:00.237Z,2.22
2023-05-19T15:56:27.409Z,2.70
2023-05-19T15:58:54.536Z,2.40
2023-05-19T16:01:21.927Z,2.47
2023-05-19T16:03:49.270Z,2.33
2023-05-19T16:06:17.879Z,2.20
2023-05-19T16:08:45.223Z,2.50
2023-05-19T16:11:13.033Z,2.20
2023-05-19T16:13:40.333Z,2.50
2023-05-19T16:16:07.735Z,2.20
2023-05-19T16:18:35.028Z,2.60
2023-05-19T16:21:02.229Z,2.40
2023-05-19T16:23:29.324Z,2.30
2023-05-19T16:25:57.689Z,2.45
2023-05-19T16:28:25.176Z,2.20
2023-05-19T16:30:52.588Z,2.58
2023-05-19T16:33:19.800Z,2.35
2023-05-19T16:35:47.144Z,2.28
2023-05-19T16:38:14.399Z,2.50
2023-05-19T16:40:41.845Z,2.40
2023-05-19T16:43:09.105Z,2.40
2023-05-19T16:45:36.506Z,2.60
2023-05-19T16:48:03.944Z,2.45
2023-05-19T16:50:31.420Z,2.40
2023-05-19T16:52:58.694Z,2.50
2023-05-19T16:55:26.899Z,2.22
2023-05-19T16:57:54.231Z,2.40
2023-05-19T17:00:21.746Z,2.65
2023-05-19T17:02:49.038Z,2.33
2023-05-19T17:05:16.532Z,2.30
2023-05-19T17:07:43.879Z,2.45
2023-05-19T17:10:11.308Z,2.65
2023-05-19T17:12:38.667Z,2.53
2023-05-19T17:15:06.690Z,2.53
2023-05-19T17:17:33.925Z,2.50
2023-05-19T17:20:01.576Z,2.58
2023-05-19T17:22:30.876Z,2.60
2023-05-19T17:24:58.189Z,2.53
2023-05-19T17:27:25.332Z,2.28
2023-05-19T17:29:52.798Z,2.33
2023-05-19T17:32:26.047Z,2.50
2023-05-19T17:34:53.356Z,2.25
2023-05-19T17:37:23.571Z,2.38
2023-05-19T17:39:51.683Z,2.83
2023-05-19T17:42:18.963Z,2.40
2023-05-19T17:44:46.195Z,2.60
2023-05-19T17:47:13.496Z,2.55
2023-05-19T17:49:41.631Z,2.20
2023-05-19T17:52:09.401Z,2.60
2023-05-19T17:54:37.036Z,2.50
2023-05-19T17:57:04.577Z,2.80
2023-05-19T17:59:32.042Z,3.00
2023-05-19T18:01:59.593Z,3.33
2023-05-19T18:04:27.092Z,4.13
2023-05-19T18:06:54.333Z,4.38
2023-05-19T18:09:21.536Z,5.97
2023-05-19T18:11:48.699Z,6.57
2023-05-19T18:14:16.034Z,9.68
2023-05-19T18:16:43.395Z,11.02
2023-05-19T18:19:10.914Z,11.88
2023-05-19T18:21:38.900Z,9.10
2023-05-19T18:24:07.188Z,8.85
2023-05-19T18:26:34.589Z,8.15
2023-05-19T18:29:04.968Z,7.97
2023-05-19T18:31:32.648Z,6.68
2023-05-19T18:33:59.788Z,6.13
2023-05-19T18:36:27.024Z,6.70
2023-05-19T18:38:55.293Z,12.32
2023-05-19T18:41:22.496Z,17.95
2023-05-19T18:43:49.798Z,28.15
2023-05-19T18:46:20.822Z,27.08
2023-05-19T18:48:50.527Z,20.88
2023-05-19T18:51:18.890Z,13.52
2023-05-19T18:53:48.740Z,11.65
2023-05-19T18:56:23.531Z,9.23
2023-05-19T18:58:50.921Z,6.15
2023-05-19T19:01:18.434Z,4.80
2023-05-19T19:03:49.739Z,3.63
2023-05-19T19:06:20.956Z,3.30
2023-05-19T19:08:48.685Z,3.28
2023-05-19T19:11:18.993Z,2.90
2023-05-19T19:13:46.496Z,2.83
2023-05-19T19:16:13.820Z,2.70
2023-05-19T19:18:41.067Z,2.80
2023-05-19T19:21:08.681Z,2.45
2023-05-19T19:23:37.915Z,2.65
2023-05-19T19:26:05.303Z,2.67
2023-05-19T19:28:32.643Z,2.72
2023-05-19T19:30:59.868Z,2.90
2023-05-19T19:33:27.173Z,2.50
2023-05-19T19:35:54.400Z,2.65
2023-05-19T19:38:21.630Z,2.60
2023-05-19T19:40:51.587Z,2.50
2023-05-19T19:43:19.141Z,2.63
2023-05-19T19:45:46.273Z,2.45
2023-05-19T19:48:13.514Z,2.40
2023-05-19T19:50:40.850Z,2.42
2023-05-19T19:53:09.038Z,2.58
2023-05-19T19:55:36.819Z,2.97
2023-05-19T19:58:04.061Z,2.72
2023-05-19T20:00:31.349Z,2.70
2023-05-19T20:05:29.018Z,2.80
2023-05-19T20:07:56.273Z,3.13
2023-05-19T20:10:23.441Z,2.80
2023-05-19T20:12:50.730Z,2.78
2023-05-19T20:15:18.065Z,2.50
2023-05-19T20:17:45.953Z,3.03
2023-05-19T20:20:13.368Z,2.70
2023-05-19T20:22:40.588Z,2.38
2023-05-19T20:25:08.052Z,2.80
2023-05-19T20:27:35.227Z,2.60
2023-05-19T20:30:02.388Z,2.50
2023-05-19T20:32:34.774Z,2.75
2023-05-19T20:35:01.901Z,2.60
2023-05-19T20:37:32.147Z,2.60
2023-05-19T20:39:59.262Z,2.60
2023-05-19T20:42:26.644Z,2.60
2023-05-19T20:44:53.925Z,2.78
2023-05-19T20:47:21.280Z,2.70
2023-05-19T20:49:48.589Z,2.70
2023-05-19T20:52:16.389Z,2.65
2023-05-19T20:54:43.710Z,2.58
2023-05-19T20:57:11.659Z,2.40
2023-05-19T20:59:39.365Z,2.60
2023-05-19T21:02:07.698Z,2.40
2023-05-19T21:04:35.163Z,2.42
2023-05-19T21:07:02.493Z,2.60
2023-05-19T21:09:29.958Z,2.70
2023-05-19T21:11:57.236Z,2.40
2023-05-19T21:14:25.531Z,2.60
2023-05-19T21:16:54.443Z,2.38
2023-05-19T21:19:23.162Z,2.28
2023-05-19T21:21:50.493Z,2.63
2023-05-19T21:24:17.713Z,2.47
2023-05-19T21:26:45.002Z,2.50
2023-05-19T21:29:12.154Z,2.70
2023-05-19T21:31:39.408Z,2.47
2023-05-19T21:34:09.624Z,2.50
2023-05-19T21:36:36.889Z,2.60
2023-05-19T21:39:04.701Z,2.40
2023-05-19T21:41:32.577Z,2.15
2023-05-19T21:44:00.086Z,2.53
2023-05-19T21:46:29.227Z,2.88
2023-05-19T21:48:56.877Z,2.40
2023-05-19T21:51:24.155Z,2.20
2023-05-19T21:53:51.351Z,2.33
2023-05-19T21:56:18.638Z,2.40
2023-05-19T21:58:46.252Z,2.40
2023-05-19T22:01:13.418Z,2.15
2023-05-19T22:03:41.014Z,2.70
2023-05-19T22:06:08.438Z,2.47
2023-05-19T22:08:35.908Z,2.67
2023-05-19T22:11:03.286Z,3.00
2023-05-19T22:13:30.773Z,2.60
2023-05-19T22:15:58.386Z,2.55
2023-05-19T22:18:25.507Z,2.72
2023-05-19T22:20:52.503Z,2.90
2023-05-19T22:23:19.582Z,3.10
2023-05-19T22:25:47.021Z,3.30
2023-05-19T22:28:14.131Z,2.90
2023-05-19T22:30:42.383Z,2.33
2023-05-19T22:33:11.398Z,2.30
2023-05-19T22:35:38.599Z,2.42
2023-05-19T22:38:06.502Z,2.20
2023-05-19T22:40:35.726Z,2.67
2023-05-19T22:43:03.037Z,2.20
2023-05-19T22:45:30.143Z,2.90
2023-05-19T22:47:57.232Z,2.60
2023-05-19T22:50:24.302Z,2.60
2023-05-19T22:52:51.548Z,2.10
2023-05-19T22:55:18.697Z,2.33
2023-05-19T22:57:45.804Z,2.40
2023-05-19T23:00:18.834Z,2.47
2023-05-19T23:02:45.996Z,2.45
2023-05-19T23:05:13.404Z,2.47
2023-05-19T23:07:40.759Z,2.50
2023-05-19T23:10:08.579Z,2.40
2023-05-19T23:12:35.801Z,2.60
2023-05-19T23:15:03.436Z,2.30
2023-05-19T23:17:34.603Z,2.40
2023-05-19T23:20:01.700Z,2.33
2023-05-19T23:22:31.553Z,2.28
2023-05-19T23:24:58.596Z,2.70
2023-05-19T23:27:26.126Z,2.30
2023-05-19T23:29:53.692Z,2.50
2023-05-19T23:32:20.805Z,2.40
2023-05-19T23:34:48.630Z,2.30
2023-05-19T23:37:16.003Z,2.40
2023-05-19T23:39:43.326Z,2.28
2023-05-19T23:42:10.459Z,2.28
2023-05-19T23:44:37.964Z,2.42
2023-05-19T23:47:05.174Z,2.53
2023-05-19T23:49:32.225Z,2.40
2023-05-19T23:51:59.263Z,2.30
2023-05-19T23:54:26.894Z,2.20
2023-05-19T23:56:55.908Z,2.45
2023-05-19T23:59:23.003Z,2.50
